createdAt,value
2019-03-22T00:02:00.585Z,54.07
2019-03-22T00:04:29.048Z,49.77
2019-03-22T00:06:57.555Z,48.17
2019-03-22T00:09:26.019Z,42.60
2019-03-22T00:11:54.550Z,52.33
2019-03-22T00:14:23.063Z,54.10
2019-03-22T00:16:51.536Z,58.50
2019-03-22T00:19:20.004Z,52.23
2019-03-22T00:21:48.477Z,51.90
2019-03-22T00:24:16.940Z,51.37
2019-03-22T00:26:45.478Z,44.80
2019-03-22T00:29:13.969Z,52.27
2019-03-22T00:31:42.434Z,45.70
2019-03-22T00:34:10.889Z,43.27
2019-03-22T00:36:39.386Z,56.43
2019-03-22T00:39:07.937Z,43.57
2019-03-22T00:41:36.396Z,43.57
2019-03-22T00:44:04.909Z,47.30
2019-03-22T00:46:33.385Z,47.63
2019-03-22T00:49:01.859Z,50.03
2019-03-22T00:51:30.346Z,48.13
2019-03-22T00:53:58.797Z,40.20
2019-03-22T00:56:27.268Z,46.97
2019-03-22T00:58:55.769Z,43.23
2019-03-22T01:01:24.301Z,47.27
2019-03-22T01:03:52.769Z,38.87
2019-03-22T01:06:21.272Z,36.20
2019-03-22T01:08:49.736Z,34.30
2019-03-22T01:11:18.198Z,31.93
2019-03-22T01:13:46.683Z,32.93
2019-03-22T01:16:15.153Z,41.87
2019-03-22T01:18:43.608Z,39.43
2019-03-22T01:21:12.120Z,38.43
2019-03-22T01:23:40.587Z,37.10
2019-03-22T01:26:09.056Z,31.00
2019-03-22T01:28:38.588Z,33.50
2019-03-22T01:31:07.051Z,37.63
2019-03-22T01:33:35.521Z,43.13
2019-03-22T01:36:04.199Z,36.00
2019-03-22T01:38:32.715Z,36.57
2019-03-22T01:41:01.176Z,32.23
2019-03-22T01:43:29.684Z,34.50
2019-03-22T01:45:58.157Z,32.47
2019-03-22T01:48:26.617Z,32.57
2019-03-22T01:50:55.116Z,30.73
2019-03-22T01:53:23.574Z,28.33
2019-03-22T01:55:52.025Z,36.20
2019-03-22T01:58:20.603Z,41.77
2019-03-22T02:00:49.065Z,31.00
2019-03-22T02:03:17.529Z,28.53
2019-03-22T02:05:46.035Z,28.23
2019-03-22T02:08:14.535Z,35.70
2019-03-22T02:10:43.002Z,31.00
2019-03-22T02:13:11.502Z,32.10
2019-03-22T02:15:39.963Z,28.20
2019-03-22T02:18:08.592Z,27.47
2019-03-22T02:20:37.093Z,24.13
2019-03-22T02:23:05.544Z,25.67
2019-03-22T02:25:33.993Z,27.60
2019-03-22T02:28:04.428Z,37.40
2019-03-22T02:30:32.951Z,27.17
2019-03-22T02:33:01.491Z,25.10
2019-03-22T02:35:29.999Z,31.97
2019-03-22T02:37:58.449Z,31.17
2019-03-22T02:40:26.920Z,31.20
2019-03-22T02:42:55.493Z,27.20
2019-03-22T02:45:23.967Z,28.47
2019-03-22T02:47:52.435Z,29.73
2019-03-22T02:50:20.917Z,39.00
2019-03-22T02:52:49.397Z,42.03
2019-03-22T02:55:17.881Z,38.73
2019-03-22T02:57:46.474Z,43.73
2019-03-22T03:00:16.470Z,37.03
2019-03-22T03:02:45.138Z,44.00
2019-03-22T03:05:15.169Z,34.27
2019-03-22T03:07:43.781Z,48.53
2019-03-22T03:10:16.390Z,39.87
2019-03-22T03:12:45.275Z,41.47
2019-03-22T03:15:16.764Z,41.17
2019-03-22T03:17:45.366Z,49.27
2019-03-22T03:20:15.314Z,36.43
2019-03-22T03:22:43.775Z,39.90
2019-03-22T03:25:12.980Z,34.50
2019-03-22T03:27:41.466Z,46.60
2019-03-22T03:30:20.564Z,45.60
2019-03-22T03:32:49.333Z,39.77
2019-03-22T03:35:18.724Z,45.93
2019-03-22T03:37:47.264Z,45.73
2019-03-22T03:40:16.299Z,34.87
2019-03-22T03:42:44.774Z,47.47
2019-03-22T03:45:37.583Z,51.90
2019-03-22T03:48:08.587Z,49.73
2019-03-22T03:50:37.175Z,50.50
2019-03-22T03:53:06.441Z,40.53
2019-03-22T03:55:34.911Z,47.43
2019-03-22T03:58:03.546Z,44.93
2019-03-22T04:00:32.047Z,46.50
2019-03-22T04:03:00.525Z,45.33
2019-03-22T04:05:29.060Z,49.90
2019-03-22T04:07:57.562Z,44.70
2019-03-22T04:10:26.095Z,53.07
2019-03-22T04:12:54.559Z,48.53
2019-03-22T04:15:23.057Z,49.93
2019-03-22T04:17:51.546Z,47.60
2019-03-22T04:20:20.001Z,47.93
2019-03-22T04:22:48.529Z,45.60
2019-03-22T04:25:17.009Z,44.17
2019-03-22T04:27:45.504Z,48.97
2019-03-22T04:30:14.072Z,61.33
2019-03-22T04:32:42.583Z,51.53
2019-03-22T04:35:12.180Z,60.00
2019-03-22T04:37:40.692Z,58.27
2019-03-22T04:40:25.797Z,55.73
2019-03-22T04:42:54.288Z,51.80
2019-03-22T04:45:23.204Z,51.70
2019-03-22T04:48:02.828Z,59.63
2019-03-22T04:50:32.560Z,58.87
2019-03-22T04:53:01.092Z,62.17
2019-03-22T04:55:29.784Z,57.30
2019-03-22T04:57:58.993Z,47.93
2019-03-22T05:00:27.613Z,55.57
2019-03-22T05:02:56.197Z,47.70
2019-03-22T05:05:25.129Z,51.83
2019-03-22T05:07:53.662Z,54.00
2019-03-22T05:10:23.155Z,55.73
2019-03-22T05:12:52.494Z,55.53
2019-03-22T05:15:22.044Z,52.60
2019-03-22T05:17:50.543Z,50.83
2019-03-22T05:20:20.459Z,55.77
2019-03-22T05:22:51.067Z,59.57
2019-03-22T05:25:20.617Z,56.30
2019-03-22T05:27:49.989Z,52.63
2019-03-22T05:30:56.933Z,51.60
2019-03-22T05:33:25.382Z,48.33
2019-03-22T05:35:53.864Z,50.57
2019-03-22T05:38:24.119Z,49.57
2019-03-22T05:40:52.590Z,65.00
2019-03-22T05:43:21.091Z,68.70
2019-03-22T05:45:49.605Z,72.43
2019-03-22T05:48:18.089Z,54.90
2019-03-22T05:50:46.547Z,60.23
2019-03-22T05:53:15.080Z,80.80
2019-03-22T05:55:43.556Z,79.73
2019-03-22T05:58:12.036Z,69.87
2019-03-22T06:00:40.534Z,67.27
2019-03-22T06:03:09.136Z,69.70
2019-03-22T06:05:37.610Z,71.73
2019-03-22T06:08:06.292Z,77.20
2019-03-22T06:10:34.763Z,47.30
2019-03-22T06:13:03.240Z,61.57
2019-03-22T06:15:31.736Z,67.30
2019-03-22T06:18:00.216Z,54.60
2019-03-22T06:20:28.690Z,57.30
2019-03-22T06:22:57.191Z,58.17
2019-03-22T06:25:25.675Z,82.10
2019-03-22T06:27:54.135Z,49.47
2019-03-22T06:30:22.673Z,51.60
2019-03-22T06:32:51.154Z,43.30
2019-03-22T06:35:19.625Z,81.13
2019-03-22T06:37:48.123Z,83.63
2019-03-22T06:40:16.707Z,74.23
2019-03-22T06:42:45.165Z,61.90
2019-03-22T06:45:13.851Z,58.70
2019-03-22T06:47:42.322Z,73.53
2019-03-22T06:50:11.199Z,45.20
2019-03-22T06:52:39.689Z,47.27
2019-03-22T06:55:08.320Z,58.07
2019-03-22T06:57:36.797Z,48.00
2019-03-22T07:00:07.710Z,60.53
2019-03-22T07:02:36.190Z,51.97
2019-03-22T07:05:06.503Z,52.83
2019-03-22T07:07:35.017Z,51.33
2019-03-22T07:10:05.228Z,52.50
2019-03-22T07:12:33.712Z,54.23
2019-03-22T07:15:02.210Z,53.43
2019-03-22T07:17:30.675Z,43.77
2019-03-22T07:19:59.138Z,54.20
2019-03-22T07:22:27.651Z,62.63
2019-03-22T07:24:56.116Z,45.90
2019-03-22T07:27:24.805Z,65.00
2019-03-22T07:29:53.301Z,57.57
2019-03-22T07:32:21.768Z,80.57
2019-03-22T07:34:50.245Z,59.63
2019-03-22T07:37:18.780Z,50.07
2019-03-22T07:39:47.396Z,56.87
2019-03-22T07:42:17.558Z,73.57
2019-03-22T07:44:46.355Z,57.10
2019-03-22T07:47:14.816Z,67.47
2019-03-22T07:49:43.302Z,66.37
2019-03-22T07:52:11.811Z,60.60
2019-03-22T07:54:40.280Z,55.23
2019-03-22T07:57:08.757Z,64.47
2019-03-22T07:59:37.263Z,72.80
2019-03-22T08:02:05.806Z,69.03
2019-03-22T08:04:34.280Z,56.97
2019-03-22T08:07:02.855Z,66.50
2019-03-22T08:09:31.338Z,66.27
2019-03-22T08:11:59.975Z,65.60
2019-03-22T08:14:28.491Z,71.27
2019-03-22T08:16:56.954Z,67.03
2019-03-22T08:19:25.436Z,67.27
2019-03-22T08:21:53.950Z,54.40
2019-03-22T08:24:22.429Z,73.00
2019-03-22T08:26:50.943Z,66.97
2019-03-22T08:29:19.430Z,66.27
2019-03-22T08:31:47.884Z,71.70
2019-03-22T08:34:16.411Z,67.07
2019-03-22T08:36:44.938Z,66.03
2019-03-22T08:39:13.438Z,69.80
2019-03-22T08:41:41.892Z,71.07
2019-03-22T08:44:10.626Z,59.73
2019-03-22T08:46:39.287Z,54.00
2019-03-22T08:49:09.488Z,57.77
2019-03-22T08:51:37.970Z,70.13
2019-03-22T08:54:06.513Z,55.27
2019-03-22T08:56:36.210Z,53.77
2019-03-22T08:59:04.917Z,54.90
2019-03-22T09:01:33.443Z,49.60
2019-03-22T09:04:01.943Z,56.63
2019-03-22T09:06:30.524Z,52.40
2019-03-22T09:08:58.952Z,54.73
2019-03-22T09:11:27.432Z,57.47
2019-03-22T09:13:55.931Z,45.13
2019-03-22T09:16:24.415Z,39.73
2019-03-22T09:18:52.883Z,23.60
2019-03-22T09:21:21.463Z,26.40
2019-03-22T09:23:50.009Z,25.33
2019-03-22T09:26:20.074Z,18.43
2019-03-22T09:28:48.889Z,18.10
2019-03-22T09:31:17.355Z,28.70
2019-03-22T09:33:45.871Z,16.20
2019-03-22T09:36:14.410Z,20.40
2019-03-22T09:38:44.611Z,21.70
2019-03-22T09:41:13.074Z,16.73
2019-03-22T09:43:41.557Z,28.57
2019-03-22T09:46:11.119Z,18.83
2019-03-22T09:48:39.615Z,20.50
2019-03-22T09:51:08.085Z,23.77
2019-03-22T09:53:36.636Z,22.30
2019-03-22T09:56:05.130Z,18.03
2019-03-22T09:58:33.601Z,20.77
2019-03-22T10:01:02.137Z,24.23
2019-03-22T10:03:30.670Z,18.23
2019-03-22T10:05:59.136Z,16.27
2019-03-22T10:08:27.620Z,25.40
2019-03-22T10:10:56.148Z,18.00
2019-03-22T10:13:24.636Z,24.17
2019-03-22T10:15:53.102Z,17.07
2019-03-22T10:18:21.618Z,21.70
2019-03-22T10:20:50.087Z,19.17
2019-03-22T10:23:18.566Z,21.63
2019-03-22T10:25:47.060Z,16.53
2019-03-22T10:28:15.561Z,16.53
2019-03-22T10:30:44.056Z,21.60
2019-03-22T10:33:22.102Z,19.23
2019-03-22T10:35:42.749Z,17.67
2019-03-22T10:38:16.434Z,19.77
2019-03-22T10:40:41.451Z,17.27
2019-03-22T10:43:09.909Z,20.43
2019-03-22T10:45:38.369Z,17.70
2019-03-22T10:48:07.100Z,16.97
2019-03-22T10:50:35.595Z,18.77
2019-03-22T10:53:04.092Z,17.97
2019-03-22T10:55:35.356Z,23.57
2019-03-22T10:58:02.745Z,21.10
2019-03-22T11:00:31.219Z,19.93
2019-03-22T11:02:59.814Z,18.03
2019-03-22T11:05:28.274Z,22.23
2019-03-22T11:07:56.781Z,15.63
2019-03-22T11:10:25.449Z,21.07
2019-03-22T11:12:53.927Z,22.60
2019-03-22T11:15:23.981Z,22.70
2019-03-22T11:17:52.813Z,15.63
2019-03-22T11:20:21.272Z,20.47
2019-03-22T11:22:49.745Z,21.63
2019-03-22T11:25:18.263Z,17.93
2019-03-22T11:27:46.740Z,17.00
2019-03-22T11:30:19.291Z,13.10
2019-03-22T11:32:47.881Z,27.40
2019-03-22T11:35:16.420Z,15.37
2019-03-22T11:37:44.897Z,15.97
2019-03-22T11:40:15.643Z,13.43
2019-03-22T11:42:44.115Z,16.17
2019-03-22T11:45:18.767Z,14.77
2019-03-22T11:47:47.339Z,12.80
2019-03-22T11:50:16.169Z,20.37
2019-03-22T11:52:44.697Z,18.57
2019-03-22T11:55:14.441Z,16.40
2019-03-22T11:57:42.914Z,14.27
2019-03-22T12:00:17.059Z,23.17
2019-03-22T12:02:45.578Z,19.67
2019-03-22T12:05:15.098Z,26.60
2019-03-22T12:07:43.571Z,16.00
2019-03-22T12:10:14.684Z,15.13
2019-03-22T12:12:43.224Z,13.07
2019-03-22T12:15:14.144Z,15.13
2019-03-22T12:17:42.631Z,12.13
2019-03-22T12:20:22.187Z,13.97
2019-03-22T12:22:50.834Z,13.00
2019-03-22T12:25:24.460Z,22.17
2019-03-22T12:27:52.928Z,13.47
2019-03-22T12:30:21.539Z,16.10
2019-03-22T12:32:50.018Z,14.93
2019-03-22T12:35:18.863Z,12.57
2019-03-22T12:37:47.373Z,10.97
2019-03-22T12:40:22.910Z,21.13
2019-03-22T12:42:51.418Z,17.87
2019-03-22T12:45:28.194Z,14.03
2019-03-22T12:47:56.770Z,13.17
2019-03-22T12:50:25.662Z,13.40
2019-03-22T12:52:54.137Z,12.40
2019-03-22T12:55:22.639Z,11.10
2019-03-22T12:57:51.178Z,14.93
2019-03-22T13:00:23.539Z,14.90
2019-03-22T13:02:52.429Z,12.83
2019-03-22T13:05:22.063Z,12.10
2019-03-22T13:07:50.877Z,17.23
2019-03-22T13:10:27.427Z,12.63
2019-03-22T13:12:56.029Z,28.50
2019-03-22T13:15:24.494Z,18.13
2019-03-22T13:17:53.020Z,18.17
2019-03-22T13:20:21.628Z,12.60
2019-03-22T13:22:50.098Z,14.27
2019-03-22T13:25:21.209Z,19.63
2019-03-22T13:27:49.850Z,13.97
2019-03-22T13:30:30.546Z,25.90
2019-03-22T13:32:59.174Z,13.73
2019-03-22T13:35:27.723Z,17.80
2019-03-22T13:37:56.382Z,13.30
2019-03-22T13:40:24.849Z,19.20
2019-03-22T13:42:53.397Z,15.13
2019-03-22T13:45:21.968Z,14.03
2019-03-22T13:47:50.484Z,13.90
2019-03-22T13:50:18.996Z,10.10
2019-03-22T13:52:48.573Z,15.53
2019-03-22T13:55:17.041Z,12.43
2019-03-22T13:57:45.510Z,12.40
2019-03-22T14:00:18.128Z,12.17
2019-03-22T14:02:46.596Z,12.27
2019-03-22T14:05:15.215Z,14.27
2019-03-22T14:07:43.803Z,9.07
2019-03-22T14:10:31.345Z,13.70
2019-03-22T14:13:01.073Z,10.50
2019-03-22T14:15:29.927Z,17.73
2019-03-22T14:17:58.860Z,9.77
2019-03-22T14:20:27.363Z,13.23
2019-03-22T14:22:55.908Z,16.97
2019-03-22T14:25:24.397Z,17.47
2019-03-22T14:27:53.822Z,20.17
2019-03-22T14:30:22.283Z,16.93
2019-03-22T14:32:50.753Z,15.53
2019-03-22T14:35:19.265Z,13.97
2019-03-22T14:37:47.751Z,14.30
2019-03-22T14:40:16.305Z,10.43
2019-03-22T14:42:44.847Z,14.63
2019-03-22T14:45:14.873Z,13.90
2019-03-22T14:47:43.713Z,13.20
2019-03-22T14:50:12.293Z,15.80
2019-03-22T14:52:40.755Z,14.10
2019-03-22T14:55:09.448Z,18.30
2019-03-22T14:57:47.836Z,15.80
2019-03-22T15:00:10.590Z,71.23
2019-03-22T15:02:39.059Z,39.80
2019-03-22T15:05:07.621Z,25.13
2019-03-22T15:07:36.098Z,34.23
2019-03-22T15:10:07.402Z,18.47
2019-03-22T15:12:35.920Z,16.90
2019-03-22T15:15:08.447Z,17.40
2019-03-22T15:17:38.594Z,16.43
2019-03-22T15:20:12.141Z,24.57
2019-03-22T15:22:47.973Z,21.30
2019-03-22T15:25:20.562Z,18.63
2019-03-22T15:28:08.925Z,17.57
2019-03-22T15:30:57.243Z,23.43
2019-03-22T15:33:43.583Z,26.63
2019-03-22T15:36:25.780Z,20.67
2019-03-22T15:38:56.063Z,20.63
2019-03-22T15:41:24.557Z,22.97
2019-03-22T15:43:53.086Z,18.97
2019-03-22T15:46:21.601Z,20.00
2019-03-22T15:48:50.103Z,28.63
2019-03-22T15:51:18.611Z,18.30
2019-03-22T15:53:47.082Z,19.13
2019-03-22T15:56:16.587Z,17.00
2019-03-22T15:58:45.100Z,26.23
2019-03-22T16:01:13.582Z,17.00
2019-03-22T16:03:44.434Z,19.27
2019-03-22T16:06:12.360Z,20.97
2019-03-22T16:08:40.853Z,20.50
2019-03-22T16:11:09.350Z,21.73
2019-03-22T16:13:37.843Z,16.53
2019-03-22T16:16:06.302Z,21.13
2019-03-22T16:18:34.756Z,22.00
2019-03-22T16:21:03.270Z,23.50
2019-03-22T16:23:31.731Z,23.17
2019-03-22T16:26:00.199Z,21.30
2019-03-22T16:28:28.701Z,20.77
2019-03-22T16:30:57.183Z,19.00
2019-03-22T16:33:25.654Z,24.10
2019-03-22T16:35:54.173Z,19.57
2019-03-22T16:38:22.790Z,21.77
2019-03-22T16:40:51.251Z,21.40
2019-03-22T16:43:19.742Z,17.77
2019-03-22T16:45:48.217Z,20.93
2019-03-22T16:48:16.678Z,28.63
2019-03-22T16:50:45.172Z,22.03
2019-03-22T16:53:13.646Z,22.83
2019-03-22T16:55:42.110Z,33.50
2019-03-22T16:58:10.635Z,26.07
2019-03-22T17:00:39.091Z,25.70
2019-03-22T17:03:07.631Z,26.70
2019-03-22T17:05:36.133Z,29.47
2019-03-22T17:08:04.769Z,23.80
2019-03-22T17:10:33.241Z,25.23
2019-03-22T17:13:01.751Z,33.03
2019-03-22T17:15:30.230Z,39.10
2019-03-22T17:17:58.688Z,36.23
2019-03-22T17:20:27.192Z,24.07
2019-03-22T17:22:55.659Z,28.80
2019-03-22T17:25:24.134Z,32.47
2019-03-22T17:27:52.624Z,24.27
2019-03-22T17:30:21.653Z,23.67
2019-03-22T17:32:50.133Z,27.50
2019-03-22T17:35:18.642Z,27.33
2019-03-22T17:37:47.112Z,27.30
2019-03-22T17:40:15.652Z,36.73
2019-03-22T17:42:44.170Z,26.27
2019-03-22T17:45:15.628Z,29.90
2019-03-22T17:47:44.147Z,37.53
2019-03-22T17:50:13.783Z,32.70
2019-03-22T17:52:42.326Z,41.60
2019-03-22T17:55:11.537Z,35.30
2019-03-22T17:57:41.006Z,32.10
2019-03-22T18:00:30.384Z,35.50
2019-03-22T18:02:58.887Z,32.50
2019-03-22T18:05:27.354Z,43.63
2019-03-22T18:07:55.821Z,36.87
2019-03-22T18:10:24.341Z,43.73
2019-03-22T18:12:52.818Z,33.43
2019-03-22T18:15:21.279Z,41.27
2019-03-22T18:17:49.818Z,32.67
2019-03-22T18:20:18.271Z,25.67
2019-03-22T18:22:46.743Z,32.23
2019-03-22T18:25:15.945Z,38.10
2019-03-22T18:27:44.364Z,39.57
2019-03-22T18:30:14.060Z,36.87
2019-03-22T18:32:42.546Z,31.87
2019-03-22T18:35:11.083Z,38.17
2019-03-22T18:37:39.544Z,43.07
2019-03-22T18:40:12.759Z,39.10
2019-03-22T18:42:41.230Z,32.93
2019-03-22T18:45:11.952Z,32.13
2019-03-22T18:47:41.193Z,38.37
2019-03-22T18:50:10.887Z,33.27
2019-03-22T18:52:39.381Z,31.70
2019-03-22T18:55:08.211Z,30.57
2019-03-22T18:57:36.753Z,42.00
2019-03-22T19:00:08.642Z,32.00
2019-03-22T19:02:37.174Z,42.03
2019-03-22T19:05:07.488Z,37.23
2019-03-22T19:07:35.968Z,37.53
2019-03-22T19:10:15.290Z,40.27
2019-03-22T19:12:43.769Z,40.10
2019-03-22T19:15:13.499Z,37.83
2019-03-22T19:17:42.074Z,45.27
2019-03-22T19:20:14.730Z,42.30
2019-03-22T19:22:43.192Z,39.73
2019-03-22T19:25:14.324Z,36.13
2019-03-22T19:27:42.354Z,44.83
2019-03-22T19:30:15.733Z,39.87
2019-03-22T19:32:44.314Z,43.50
2019-03-22T19:35:13.218Z,46.77
2019-03-22T19:37:41.683Z,42.37
2019-03-22T19:40:12.229Z,41.97
2019-03-22T19:42:40.684Z,41.70
2019-03-22T19:45:11.192Z,45.40
2019-03-22T19:47:39.706Z,47.10
2019-03-22T19:50:13.741Z,36.93
2019-03-22T19:52:43.019Z,50.23
2019-03-22T19:55:11.712Z,51.37
2019-03-22T19:57:40.192Z,47.77
2019-03-22T20:00:19.132Z,45.47
2019-03-22T20:02:49.297Z,47.37
2019-03-22T20:05:29.255Z,47.33
2019-03-22T20:07:57.795Z,50.20
2019-03-22T20:10:26.266Z,50.90
2019-03-22T20:12:54.769Z,48.23
2019-03-22T20:15:23.222Z,51.50
2019-03-22T20:17:51.722Z,52.00
2019-03-22T20:20:20.281Z,48.77
2019-03-22T20:22:48.768Z,51.23
2019-03-22T20:25:17.225Z,59.80
2019-03-22T20:27:45.752Z,59.80
2019-03-22T20:30:18.588Z,51.53
2019-03-22T20:32:47.047Z,55.10
2019-03-22T20:35:17.070Z,58.47
2019-03-22T20:37:45.682Z,56.63
2019-03-22T20:40:16.243Z,51.23
2019-03-22T20:42:44.790Z,59.57
2019-03-22T20:45:23.531Z,62.40
2019-03-22T20:47:43.625Z,54.70
2019-03-22T20:50:12.202Z,50.00
2019-03-22T20:52:40.687Z,65.87
2019-03-22T20:55:09.902Z,53.70
2019-03-22T20:57:38.423Z,51.70
2019-03-22T21:00:12.678Z,51.10
2019-03-22T21:02:41.332Z,57.20
2019-03-22T21:05:10.461Z,61.10
2019-03-22T21:07:38.915Z,55.67
2019-03-22T21:10:08.604Z,61.97
2019-03-22T21:12:37.121Z,55.57
2019-03-22T21:15:08.282Z,51.97
2019-03-22T21:17:36.762Z,52.43
2019-03-22T21:20:09.713Z,55.07
2019-03-22T21:22:38.357Z,54.90
2019-03-22T21:25:11.012Z,47.57
2019-03-22T21:27:39.523Z,50.53
2019-03-22T21:30:15.398Z,61.63
2019-03-22T21:32:45.475Z,61.13
2019-03-22T21:35:22.627Z,60.07
2019-03-22T21:37:44.400Z,56.63
2019-03-22T21:40:12.944Z,61.50
2019-03-22T21:42:41.467Z,68.23
2019-03-22T21:45:11.066Z,65.57
2019-03-22T21:47:40.102Z,61.13
2019-03-22T21:50:11.722Z,67.57
2019-03-22T21:52:40.183Z,64.87
2019-03-22T21:55:09.183Z,73.37
2019-03-22T21:57:37.672Z,62.63
2019-03-22T22:00:08.992Z,57.50
2019-03-22T22:02:37.466Z,67.67
2019-03-22T22:05:07.523Z,67.97
2019-03-22T22:07:36.002Z,65.60
2019-03-22T22:10:09.327Z,54.83
2019-03-22T22:12:38.028Z,76.57
2019-03-22T22:15:09.575Z,59.27
2019-03-22T22:17:39.328Z,71.10
2019-03-22T22:20:07.968Z,69.63
2019-03-22T22:22:36.431Z,70.03
2019-03-22T22:25:06.796Z,69.87
2019-03-22T22:27:35.489Z,80.33
2019-03-22T22:30:08.968Z,84.70
2019-03-22T22:32:37.447Z,71.57
2019-03-22T22:35:07.692Z,72.90
2019-03-22T22:37:36.156Z,74.93
2019-03-22T22:40:12.282Z,70.00
2019-03-22T22:42:40.748Z,70.47
2019-03-22T22:45:10.905Z,87.47
2019-03-22T22:47:39.464Z,72.00
2019-03-22T22:50:11.782Z,92.53
2019-03-22T22:52:40.236Z,74.97
2019-03-22T22:55:10.041Z,91.63
2019-03-22T22:57:38.497Z,73.77
2019-03-22T23:00:15.337Z,74.53
2019-03-22T23:02:44.458Z,91.87
2019-03-22T23:05:14.027Z,84.03
2019-03-22T23:07:42.847Z,89.27
2019-03-22T23:10:12.837Z,72.43
2019-03-22T23:12:42.049Z,83.60
2019-03-22T23:15:10.905Z,79.77
2019-03-22T23:17:39.372Z,85.43
2019-03-22T23:20:09.813Z,84.77
2019-03-22T23:22:38.282Z,75.67
2019-03-22T23:25:07.419Z,70.67
2019-03-22T23:27:36.869Z,70.23
2019-03-22T23:30:07.368Z,75.00
2019-03-22T23:32:35.864Z,72.13
2019-03-22T23:35:05.881Z,89.37
2019-03-22T23:37:34.357Z,83.87
2019-03-22T23:40:03.086Z,96.20
2019-03-22T23:42:31.596Z,92.67
2019-03-22T23:45:00.172Z,76.80
2019-03-22T23:47:28.724Z,81.37
2019-03-22T23:49:57.224Z,106.47
2019-03-22T23:52:25.687Z,91.30
2019-03-22T23:54:54.148Z,82.43
2019-03-22T23:57:22.657Z,101.17
2019-03-22T23:59:51.119Z,88.03
